sensor_id;sensor_type;location;lat;lon;timestamp;P1;durP1;ratioP1;P2;durP2;ratioP2
71395;SDS011;59888;55.814;37.132;2022-12-08T00:01:06;13.15;;;5.95;;
71395;SDS011;59888;55.814;37.132;2022-12-08T00:03:33;13.88;;;5.93;;
71395;SDS011;59888;55.814;37.132;2022-12-08T00:06:00;11.25;;;5.50;;
71395;SDS011;59888;55.814;37.132;2022-12-08T00:08:46;15.38;;;5.65;;
71395;SDS011;59888;55.814;37.132;2022-12-08T00:11:31;14.82;;;5.78;;
71395;SDS011;59888;55.814;37.132;2022-12-08T00:13:57;11.90;;;5.75;;
71395;SDS011;59888;55.814;37.132;2022-12-08T00:16:23;12.07;;;5.93;;
71395;SDS011;59888;55.814;37.132;2022-12-08T00:18:48;15.73;;;6.25;;
71395;SDS011;59888;55.814;37.132;2022-12-08T00:21:14;15.15;;;5.78;;
71395;SDS011;59888;55.814;37.132;2022-12-08T00:23:40;12.75;;;5.53;;
71395;SDS011;59888;55.814;37.132;2022-12-08T00:26:06;14.10;;;5.45;;
71395;SDS011;59888;55.814;37.132;2022-12-08T00:28:32;15.60;;;5.65;;
71395;SDS011;59888;55.814;37.132;2022-12-08T00:30:58;17.48;;;6.47;;
71395;SDS011;59888;55.814;37.132;2022-12-08T00:33:31;12.85;;;5.90;;
71395;SDS011;59888;55.814;37.132;2022-12-08T00:35:56;14.75;;;5.85;;
71395;SDS011;59888;55.814;37.132;2022-12-08T00:38:22;13.73;;;6.10;;
71395;SDS011;59888;55.814;37.132;2022-12-08T00:40:48;12.73;;;5.88;;
71395;SDS011;59888;55.814;37.132;2022-12-08T00:43:14;14.40;;;6.18;;
71395;SDS011;59888;55.814;37.132;2022-12-08T00:45:40;13.43;;;5.80;;
71395;SDS011;59888;55.814;37.132;2022-12-08T00:48:06;13.73;;;6.43;;
71395;SDS011;59888;55.814;37.132;2022-12-08T00:50:32;15.05;;;6.68;;
71395;SDS011;59888;55.814;37.132;2022-12-08T00:52:58;18.92;;;6.32;;
71395;SDS011;59888;55.814;37.132;2022-12-08T00:55:23;16.00;;;6.70;;
71395;SDS011;59888;55.814;37.132;2022-12-08T00:57:49;14.88;;;6.40;;
71395;SDS011;59888;55.814;37.132;2022-12-08T01:00:15;14.82;;;6.32;;
71395;SDS011;59888;55.814;37.132;2022-12-08T01:02:41;13.43;;;6.10;;
71395;SDS011;59888;55.814;37.132;2022-12-08T01:05:07;14.07;;;6.63;;
71395;SDS011;59888;55.814;37.132;2022-12-08T01:07:33;14.77;;;6.30;;
71395;SDS011;59888;55.814;37.132;2022-12-08T01:09:58;15.50;;;6.60;;
71395;SDS011;59888;55.814;37.132;2022-12-08T01:12:24;14.32;;;6.38;;
71395;SDS011;59888;55.814;37.132;2022-12-08T01:14:50;16.58;;;6.38;;
71395;SDS011;59888;55.814;37.132;2022-12-08T01:17:16;13.88;;;6.32;;
71395;SDS011;59888;55.814;37.132;2022-12-08T01:19:42;18.02;;;6.88;;
71395;SDS011;59888;55.814;37.132;2022-12-08T01:22:07;13.80;;;6.25;;
71395;SDS011;59888;55.814;37.132;2022-12-08T01:24:33;12.80;;;6.07;;
71395;SDS011;59888;55.814;37.132;2022-12-08T01:26:59;14.85;;;5.90;;
71395;SDS011;59888;55.814;37.132;2022-12-08T01:29:25;14.52;;;6.70;;
71395;SDS011;59888;55.814;37.132;2022-12-08T01:31:52;15.52;;;6.38;;
71395;SDS011;59888;55.814;37.132;2022-12-08T01:34:17;11.55;;;6.32;;
71395;SDS011;59888;55.814;37.132;2022-12-08T01:36:43;15.80;;;6.95;;
71395;SDS011;59888;55.814;37.132;2022-12-08T01:39:12;14.43;;;6.60;;
71395;SDS011;59888;55.814;37.132;2022-12-08T01:41:40;12.70;;;6.30;;
71395;SDS011;59888;55.814;37.132;2022-12-08T01:46:36;13.85;;;6.07;;
71395;SDS011;59888;55.814;37.132;2022-12-08T01:49:15;13.43;;;6.28;;
71395;SDS011;59888;55.814;37.132;2022-12-08T01:51:55;12.75;;;6.00;;
71395;SDS011;59888;55.814;37.132;2022-12-08T01:54:28;12.50;;;6.07;;
71395;SDS011;59888;55.814;37.132;2022-12-08T01:57:02;15.80;;;6.45;;
71395;SDS011;59888;55.814;37.132;2022-12-08T01:59:37;12.55;;;6.30;;
71395;SDS011;59888;55.814;37.132;2022-12-08T02:02:08;13.02;;;6.05;;
71395;SDS011;59888;55.814;37.132;2022-12-08T02:04:35;12.93;;;5.63;;
71395;SDS011;59888;55.814;37.132;2022-12-08T02:07:02;12.45;;;5.57;;
71395;SDS011;59888;55.814;37.132;2022-12-08T02:09:29;13.13;;;5.75;;
71395;SDS011;59888;55.814;37.132;2022-12-08T02:11:55;13.27;;;5.82;;
71395;SDS011;59888;55.814;37.132;2022-12-08T02:14:23;14.10;;;6.47;;
71395;SDS011;59888;55.814;37.132;2022-12-08T02:16:52;10.40;;;5.30;;
71395;SDS011;59888;55.814;37.132;2022-12-08T02:24:36;10.95;;;5.35;;
71395;SDS011;59888;55.814;37.132;2022-12-08T02:33:03;12.15;;;6.15;;
71395;SDS011;59888;55.814;37.132;2022-12-08T02:41:17;18.40;;;7.18;;
71395;SDS011;59888;55.814;37.132;2022-12-08T02:44:15;16.77;;;6.13;;
71395;SDS011;59888;55.814;37.132;2022-12-08T02:46:53;13.20;;;6.05;;
71395;SDS011;59888;55.814;37.132;2022-12-08T02:49:26;13.13;;;5.97;;
71395;SDS011;59888;55.814;37.132;2022-12-08T02:52:03;13.63;;;7.05;;
71395;SDS011;59888;55.814;37.132;2022-12-08T02:54:53;16.70;;;6.10;;
71395;SDS011;59888;55.814;37.132;2022-12-08T03:00:03;13.90;;;6.32;;
71395;SDS011;59888;55.814;37.132;2022-12-08T03:10:42;12.77;;;6.30;;
71395;SDS011;59888;55.814;37.132;2022-12-08T03:13:19;14.65;;;7.03;;
71395;SDS011;59888;55.814;37.132;2022-12-08T03:15:48;11.77;;;5.82;;
71395;SDS011;59888;55.814;37.132;2022-12-08T03:18:15;13.25;;;5.78;;
71395;SDS011;59888;55.814;37.132;2022-12-08T03:20:43;15.57;;;6.90;;
71395;SDS011;59888;55.814;37.132;2022-12-08T03:23:12;12.38;;;6.15;;
71395;SDS011;59888;55.814;37.132;2022-12-08T03:25:42;13.63;;;6.38;;
71395;SDS011;59888;55.814;37.132;2022-12-08T03:28:13;13.13;;;6.72;;
71395;SDS011;59888;55.814;37.132;2022-12-08T03:30:39;13.32;;;6.22;;
71395;SDS011;59888;55.814;37.132;2022-12-08T03:33:41;16.35;;;7.47;;
71395;SDS011;59888;55.814;37.132;2022-12-08T03:36:01;15.18;;;6.22;;
71395;SDS011;59888;55.814;37.132;2022-12-08T03:38:42;12.20;;;6.22;;
71395;SDS011;59888;55.814;37.132;2022-12-08T03:41:10;15.30;;;6.57;;
71395;SDS011;59888;55.814;37.132;2022-12-08T03:43:49;15.93;;;7.25;;
71395;SDS011;59888;55.814;37.132;2022-12-08T03:46:17;14.20;;;6.65;;
71395;SDS011;59888;55.814;37.132;2022-12-08T03:48:44;13.95;;;7.28;;
71395;SDS011;59888;55.814;37.132;2022-12-08T03:51:10;13.50;;;6.57;;
71395;SDS011;59888;55.814;37.132;2022-12-08T03:53:36;13.75;;;6.32;;
71395;SDS011;59888;55.814;37.132;2022-12-08T03:56:03;16.63;;;6.45;;
71395;SDS011;59888;55.814;37.132;2022-12-08T03:58:30;13.65;;;6.78;;
71395;SDS011;59888;55.814;37.132;2022-12-08T04:00:56;15.88;;;6.97;;
71395;SDS011;59888;55.814;37.132;2022-12-08T04:03:22;13.98;;;6.55;;
71395;SDS011;59888;55.814;37.132;2022-12-08T04:05:48;13.50;;;6.60;;
71395;SDS011;59888;55.814;37.132;2022-12-08T04:08:28;13.45;;;6.25;;
71395;SDS011;59888;55.814;37.132;2022-12-08T04:11:00;16.83;;;7.43;;
71395;SDS011;59888;55.814;37.132;2022-12-08T04:13:26;13.88;;;5.60;;
71395;SDS011;59888;55.814;37.132;2022-12-08T04:15:52;13.48;;;6.68;;
71395;SDS011;59888;55.814;37.132;2022-12-08T04:18:18;11.93;;;6.35;;
71395;SDS011;59888;55.814;37.132;2022-12-08T04:20:44;14.02;;;6.80;;
71395;SDS011;59888;55.814;37.132;2022-12-08T04:23:10;14.35;;;6.65;;
71395;SDS011;59888;55.814;37.132;2022-12-08T04:25:37;13.60;;;5.88;;
71395;SDS011;59888;55.814;37.132;2022-12-08T04:28:03;15.48;;;6.78;;
71395;SDS011;59888;55.814;37.132;2022-12-08T04:30:29;13.90;;;5.95;;
71395;SDS011;59888;55.814;37.132;2022-12-08T04:32:56;16.10;;;7.43;;
71395;SDS011;59888;55.814;37.132;2022-12-08T04:35:21;12.00;;;6.90;;
71395;SDS011;59888;55.814;37.132;2022-12-08T04:37:48;13.88;;;6.70;;
71395;SDS011;59888;55.814;37.132;2022-12-08T04:40:13;16.02;;;7.13;;
71395;SDS011;59888;55.814;37.132;2022-12-08T04:42:39;14.65;;;6.60;;
71395;SDS011;59888;55.814;37.132;2022-12-08T04:45:05;14.68;;;7.03;;
71395;SDS011;59888;55.814;37.132;2022-12-08T04:47:32;13.90;;;7.35;;
71395;SDS011;59888;55.814;37.132;2022-12-08T04:49:57;18.00;;;6.82;;
71395;SDS011;59888;55.814;37.132;2022-12-08T04:52:23;15.20;;;6.80;;
71395;SDS011;59888;55.814;37.132;2022-12-08T04:54:49;16.17;;;7.15;;
71395;SDS011;59888;55.814;37.132;2022-12-08T04:57:15;15.52;;;6.03;;
71395;SDS011;59888;55.814;37.132;2022-12-08T04:59:41;15.70;;;7.30;;
71395;SDS011;59888;55.814;37.132;2022-12-08T05:02:07;16.13;;;6.90;;
71395;SDS011;59888;55.814;37.132;2022-12-08T05:04:33;12.07;;;6.45;;
71395;SDS011;59888;55.814;37.132;2022-12-08T05:06:59;14.82;;;6.78;;
71395;SDS011;59888;55.814;37.132;2022-12-08T05:09:24;10.52;;;5.45;;
71395;SDS011;59888;55.814;37.132;2022-12-08T05:11:52;16.25;;;7.28;;
71395;SDS011;59888;55.814;37.132;2022-12-08T05:14:18;14.65;;;6.80;;
71395;SDS011;59888;55.814;37.132;2022-12-08T05:16:44;16.70;;;6.65;;
71395;SDS011;59888;55.814;37.132;2022-12-08T05:19:16;15.15;;;6.45;;
71395;SDS011;59888;55.814;37.132;2022-12-08T05:21:42;14.27;;;7.05;;
71395;SDS011;59888;55.814;37.132;2022-12-08T05:24:08;13.07;;;6.90;;
71395;SDS011;59888;55.814;37.132;2022-12-08T05:26:34;12.82;;;5.45;;
71395;SDS011;59888;55.814;37.132;2022-12-08T05:29:00;14.18;;;7.18;;
71395;SDS011;59888;55.814;37.132;2022-12-08T05:31:26;13.52;;;6.30;;
71395;SDS011;59888;55.814;37.132;2022-12-08T05:33:52;13.40;;;5.97;;
71395;SDS011;59888;55.814;37.132;2022-12-08T05:36:18;13.35;;;6.30;;
71395;SDS011;59888;55.814;37.132;2022-12-08T05:38:44;14.20;;;6.13;;
71395;SDS011;59888;55.814;37.132;2022-12-08T05:41:12;14.55;;;6.45;;
71395;SDS011;59888;55.814;37.132;2022-12-08T05:43:40;15.20;;;6.90;;
71395;SDS011;59888;55.814;37.132;2022-12-08T05:46:06;13.40;;;6.35;;
71395;SDS011;59888;55.814;37.132;2022-12-08T05:48:33;14.98;;;6.50;;
71395;SDS011;59888;55.814;37.132;2022-12-08T05:50:59;13.05;;;6.28;;
71395;SDS011;59888;55.814;37.132;2022-12-08T05:53:25;14.13;;;6.28;;
71395;SDS011;59888;55.814;37.132;2022-12-08T05:55:51;13.43;;;6.07;;
71395;SDS011;59888;55.814;37.132;2022-12-08T05:58:18;12.32;;;6.32;;
71395;SDS011;59888;55.814;37.132;2022-12-08T06:00:46;14.27;;;6.75;;
71395;SDS011;59888;55.814;37.132;2022-12-08T06:03:13;15.07;;;6.25;;
71395;SDS011;59888;55.814;37.132;2022-12-08T06:05:41;15.05;;;6.40;;
71395;SDS011;59888;55.814;37.132;2022-12-08T06:08:08;15.57;;;6.47;;
71395;SDS011;59888;55.814;37.132;2022-12-08T06:10:33;16.33;;;6.68;;
71395;SDS011;59888;55.814;37.132;2022-12-08T06:12:59;13.07;;;6.50;;
71395;SDS011;59888;55.814;37.132;2022-12-08T06:15:25;11.80;;;5.75;;
71395;SDS011;59888;55.814;37.132;2022-12-08T06:17:51;14.85;;;6.50;;
71395;SDS011;59888;55.814;37.132;2022-12-08T06:20:16;16.38;;;6.65;;
71395;SDS011;59888;55.814;37.132;2022-12-08T06:22:42;12.73;;;5.53;;
71395;SDS011;59888;55.814;37.132;2022-12-08T06:25:08;14.15;;;6.30;;
71395;SDS011;59888;55.814;37.132;2022-12-08T06:27:34;16.42;;;6.57;;
71395;SDS011;59888;55.814;37.132;2022-12-08T06:30:00;13.60;;;6.00;;
71395;SDS011;59888;55.814;37.132;2022-12-08T06:32:26;13.90;;;6.53;;
71395;SDS011;59888;55.814;37.132;2022-12-08T06:34:52;13.30;;;5.78;;
71395;SDS011;59888;55.814;37.132;2022-12-08T06:37:17;12.55;;;6.18;;
71395;SDS011;59888;55.814;37.132;2022-12-08T06:39:43;11.55;;;5.38;;
71395;SDS011;59888;55.814;37.132;2022-12-08T06:42:10;14.48;;;5.82;;
71395;SDS011;59888;55.814;37.132;2022-12-08T06:47:20;12.45;;;5.45;;
71395;SDS011;59888;55.814;37.132;2022-12-08T06:49:46;17.08;;;6.10;;
71395;SDS011;59888;55.814;37.132;2022-12-08T06:52:12;13.70;;;5.43;;
71395;SDS011;59888;55.814;37.132;2022-12-08T06:54:38;12.07;;;5.18;;
71395;SDS011;59888;55.814;37.132;2022-12-08T06:57:04;12.25;;;5.00;;
71395;SDS011;59888;55.814;37.132;2022-12-08T06:59:30;11.45;;;5.32;;
71395;SDS011;59888;55.814;37.132;2022-12-08T07:01:56;12.00;;;5.53;;
71395;SDS011;59888;55.814;37.132;2022-12-08T07:04:22;18.67;;;5.80;;
71395;SDS011;59888;55.814;37.132;2022-12-08T07:06:48;15.48;;;5.85;;
71395;SDS011;59888;55.814;37.132;2022-12-08T07:09:13;10.32;;;4.95;;
71395;SDS011;59888;55.814;37.132;2022-12-08T07:11:39;11.63;;;4.50;;
71395;SDS011;59888;55.814;37.132;2022-12-08T07:14:05;13.10;;;5.07;;
71395;SDS011;59888;55.814;37.132;2022-12-08T07:16:31;12.48;;;5.05;;
71395;SDS011;59888;55.814;37.132;2022-12-08T07:18:58;11.93;;;5.32;;
71395;SDS011;59888;55.814;37.132;2022-12-08T07:21:24;12.70;;;5.68;;
71395;SDS011;59888;55.814;37.132;2022-12-08T07:23:50;15.15;;;5.25;;
71395;SDS011;59888;55.814;37.132;2022-12-08T07:26:16;13.15;;;5.45;;
71395;SDS011;59888;55.814;37.132;2022-12-08T07:28:42;11.15;;;4.70;;
71395;SDS011;59888;55.814;37.132;2022-12-08T07:31:15;12.02;;;5.22;;
71395;SDS011;59888;55.814;37.132;2022-12-08T07:33:46;12.73;;;5.32;;
71395;SDS011;59888;55.814;37.132;2022-12-08T07:36:12;11.45;;;5.20;;
71395;SDS011;59888;55.814;37.132;2022-12-08T07:38:38;12.23;;;5.40;;
71395;SDS011;59888;55.814;37.132;2022-12-08T07:41:04;14.40;;;5.03;;
71395;SDS011;59888;55.814;37.132;2022-12-08T07:43:30;10.63;;;4.85;;
71395;SDS011;59888;55.814;37.132;2022-12-08T07:45:56;10.80;;;4.45;;
71395;SDS011;59888;55.814;37.132;2022-12-08T07:48:22;7.07;;;3.53;;
71395;SDS011;59888;55.814;37.132;2022-12-08T07:50:47;9.38;;;4.30;;
71395;SDS011;59888;55.814;37.132;2022-12-08T07:53:13;13.02;;;5.20;;
71395;SDS011;59888;55.814;37.132;2022-12-08T07:55:40;9.48;;;4.63;;
71395;SDS011;59888;55.814;37.132;2022-12-08T07:58:06;13.82;;;4.43;;
71395;SDS011;59888;55.814;37.132;2022-12-08T08:00:33;15.30;;;4.90;;
71395;SDS011;59888;55.814;37.132;2022-12-08T08:02:59;13.93;;;4.85;;
71395;SDS011;59888;55.814;37.132;2022-12-08T08:05:25;9.02;;;4.43;;
71395;SDS011;59888;55.814;37.132;2022-12-08T08:07:51;14.23;;;4.72;;
71395;SDS011;59888;55.814;37.132;2022-12-08T08:10:16;10.30;;;4.70;;
71395;SDS011;59888;55.814;37.132;2022-12-08T08:12:42;9.50;;;4.18;;
71395;SDS011;59888;55.814;37.132;2022-12-08T08:15:08;10.82;;;4.55;;
71395;SDS011;59888;55.814;37.132;2022-12-08T08:17:35;12.45;;;5.45;;
71395;SDS011;59888;55.814;37.132;2022-12-08T08:20:02;14.48;;;5.30;;
71395;SDS011;59888;55.814;37.132;2022-12-08T08:22:31;10.32;;;4.60;;
71395;SDS011;59888;55.814;37.132;2022-12-08T08:24:57;16.25;;;5.05;;
71395;SDS011;59888;55.814;37.132;2022-12-08T08:27:23;12.63;;;5.10;;
71395;SDS011;59888;55.814;37.132;2022-12-08T08:29:51;11.52;;;4.15;;
71395;SDS011;59888;55.814;37.132;2022-12-08T08:32:17;9.77;;;4.60;;
71395;SDS011;59888;55.814;37.132;2022-12-08T08:34:43;12.00;;;5.18;;
71395;SDS011;59888;55.814;37.132;2022-12-08T08:37:09;9.70;;;4.40;;
71395;SDS011;59888;55.814;37.132;2022-12-08T08:39:38;10.90;;;4.53;;
71395;SDS011;59888;55.814;37.132;2022-12-08T08:42:04;12.13;;;4.97;;
71395;SDS011;59888;55.814;37.132;2022-12-08T08:44:29;12.70;;;5.50;;
71395;SDS011;59888;55.814;37.132;2022-12-08T08:46:55;9.48;;;4.80;;
71395;SDS011;59888;55.814;37.132;2022-12-08T08:49:21;10.07;;;4.72;;
71395;SDS011;59888;55.814;37.132;2022-12-08T08:51:47;10.55;;;5.10;;
71395;SDS011;59888;55.814;37.132;2022-12-08T08:54:13;14.23;;;4.70;;
71395;SDS011;59888;55.814;37.132;2022-12-08T08:56:39;10.48;;;4.50;;
71395;SDS011;59888;55.814;37.132;2022-12-08T08:59:04;10.20;;;4.55;;
71395;SDS011;59888;55.814;37.132;2022-12-08T09:01:30;11.18;;;4.93;;
71395;SDS011;59888;55.814;37.132;2022-12-08T09:03:56;12.00;;;4.72;;
71395;SDS011;59888;55.814;37.132;2022-12-08T09:06:22;16.75;;;5.22;;
71395;SDS011;59888;55.814;37.132;2022-12-08T09:08:48;10.57;;;4.28;;
71395;SDS011;59888;55.814;37.132;2022-12-08T09:11:15;11.88;;;5.03;;
71395;SDS011;59888;55.814;37.132;2022-12-08T09:13:42;12.57;;;4.82;;
71395;SDS011;59888;55.814;37.132;2022-12-08T09:16:09;9.18;;;4.35;;
71395;SDS011;59888;55.814;37.132;2022-12-08T09:18:41;14.43;;;4.82;;
71395;SDS011;59888;55.814;37.132;2022-12-08T09:21:12;8.38;;;4.15;;
71395;SDS011;59888;55.814;37.132;2022-12-08T09:23:44;8.85;;;4.25;;
71395;SDS011;59888;55.814;37.132;2022-12-08T09:26:10;9.95;;;4.40;;
71395;SDS011;59888;55.814;37.132;2022-12-08T09:28:36;10.00;;;4.78;;
71395;SDS011;59888;55.814;37.132;2022-12-08T09:31:02;14.45;;;4.80;;
71395;SDS011;59888;55.814;37.132;2022-12-08T09:33:29;11.82;;;4.63;;
71395;SDS011;59888;55.814;37.132;2022-12-08T09:35:55;9.70;;;4.50;;
71395;SDS011;59888;55.814;37.132;2022-12-08T09:38:25;10.40;;;4.30;;
71395;SDS011;59888;55.814;37.132;2022-12-08T09:40:51;8.90;;;4.20;;
71395;SDS011;59888;55.814;37.132;2022-12-08T09:45:59;8.48;;;4.43;;
71395;SDS011;59888;55.814;37.132;2022-12-08T09:48:34;10.10;;;4.10;;
71395;SDS011;59888;55.814;37.132;2022-12-08T09:51:04;10.15;;;3.90;;
71395;SDS011;59888;55.814;37.132;2022-12-08T09:56:15;12.90;;;4.95;;
71395;SDS011;59888;55.814;37.132;2022-12-08T09:58:52;11.85;;;4.55;;
71395;SDS011;59888;55.814;37.132;2022-12-08T10:01:20;12.55;;;4.60;;
71395;SDS011;59888;55.814;37.132;2022-12-08T10:03:48;10.43;;;4.32;;
71395;SDS011;59888;55.814;37.132;2022-12-08T10:06:21;12.45;;;4.70;;
71395;SDS011;59888;55.814;37.132;2022-12-08T10:11:59;11.95;;;5.03;;
71395;SDS011;59888;55.814;37.132;2022-12-08T10:17:25;17.17;;;5.45;;
71395;SDS011;59888;55.814;37.132;2022-12-08T10:20:00;12.23;;;4.25;;
71395;SDS011;59888;55.814;37.132;2022-12-08T10:22:34;11.30;;;4.40;;
71395;SDS011;59888;55.814;37.132;2022-12-08T10:25:04;9.73;;;4.75;;
71395;SDS011;59888;55.814;37.132;2022-12-08T10:27:35;12.45;;;4.97;;
71395;SDS011;59888;55.814;37.132;2022-12-08T10:30:08;11.77;;;4.43;;
71395;SDS011;59888;55.814;37.132;2022-12-08T10:35:06;12.07;;;4.78;;
71395;SDS011;59888;55.814;37.132;2022-12-08T10:37:34;9.48;;;5.00;;
71395;SDS011;59888;55.814;37.132;2022-12-08T10:40:13;11.25;;;5.07;;
71395;SDS011;59888;55.814;37.132;2022-12-08T10:42:42;12.68;;;5.03;;
71395;SDS011;59888;55.814;37.132;2022-12-08T10:45:21;9.80;;;4.43;;
71395;SDS011;59888;55.814;37.132;2022-12-08T10:50:33;9.50;;;4.65;;
71395;SDS011;59888;55.814;37.132;2022-12-08T10:53:19;9.85;;;4.55;;
71395;SDS011;59888;55.814;37.132;2022-12-08T10:58:32;13.38;;;4.60;;
71395;SDS011;59888;55.814;37.132;2022-12-08T11:03:51;11.25;;;5.07;;
71395;SDS011;59888;55.814;37.132;2022-12-08T11:06:25;12.40;;;5.00;;
71395;SDS011;59888;55.814;37.132;2022-12-08T11:11:44;11.82;;;4.30;;
71395;SDS011;59888;55.814;37.132;2022-12-08T11:16:55;13.02;;;4.47;;
71395;SDS011;59888;55.814;37.132;2022-12-08T11:19:29;11.70;;;4.70;;
71395;SDS011;59888;55.814;37.132;2022-12-08T11:21:55;9.90;;;4.78;;
71395;SDS011;59888;55.814;37.132;2022-12-08T11:24:26;11.25;;;5.18;;
71395;SDS011;59888;55.814;37.132;2022-12-08T11:27:00;11.35;;;5.50;;
71395;SDS011;59888;55.814;37.132;2022-12-08T11:29:30;14.18;;;5.50;;
71395;SDS011;59888;55.814;37.132;2022-12-08T11:31:58;12.18;;;4.85;;
71395;SDS011;59888;55.814;37.132;2022-12-08T11:36:59;14.27;;;5.72;;
71395;SDS011;59888;55.814;37.132;2022-12-08T11:39:26;10.65;;;5.07;;
71395;SDS011;59888;55.814;37.132;2022-12-08T11:41:54;12.32;;;5.13;;
71395;SDS011;59888;55.814;37.132;2022-12-08T11:44:32;15.02;;;5.28;;
71395;SDS011;59888;55.814;37.132;2022-12-08T11:47:23;12.50;;;5.50;;
71395;SDS011;59888;55.814;37.132;2022-12-08T11:49:53;14.18;;;5.25;;
71395;SDS011;59888;55.814;37.132;2022-12-08T11:52:29;12.23;;;5.53;;
71395;SDS011;59888;55.814;37.132;2022-12-08T11:57:43;13.10;;;5.18;;
71395;SDS011;59888;55.814;37.132;2022-12-08T12:00:10;12.02;;;4.82;;
71395;SDS011;59888;55.814;37.132;2022-12-08T12:02:39;14.43;;;5.43;;
71395;SDS011;59888;55.814;37.132;2022-12-08T12:05:19;14.43;;;5.05;;
71395;SDS011;59888;55.814;37.132;2022-12-08T12:13:41;11.77;;;5.45;;
71395;SDS011;59888;55.814;37.132;2022-12-08T12:19:08;9.68;;;4.63;;
71395;SDS011;59888;55.814;37.132;2022-12-08T12:21:49;13.25;;;5.40;;
71395;SDS011;59888;55.814;37.132;2022-12-08T12:24:52;15.57;;;5.53;;
71395;SDS011;59888;55.814;37.132;2022-12-08T12:29:43;12.07;;;4.97;;
71395;SDS011;59888;55.814;37.132;2022-12-08T12:32:12;11.77;;;5.43;;
71395;SDS011;59888;55.814;37.132;2022-12-08T12:34:48;15.30;;;4.88;;
71395;SDS011;59888;55.814;37.132;2022-12-08T12:37:19;11.77;;;5.38;;
71395;SDS011;59888;55.814;37.132;2022-12-08T12:42:37;13.13;;;5.40;;
71395;SDS011;59888;55.814;37.132;2022-12-08T12:50:48;11.40;;;5.45;;
71395;SDS011;59888;55.814;37.132;2022-12-08T12:56:00;15.57;;;5.68;;
71395;SDS011;59888;55.814;37.132;2022-12-08T13:03:49;14.45;;;5.00;;
71395;SDS011;59888;55.814;37.132;2022-12-08T13:06:33;14.05;;;5.68;;
71395;SDS011;59888;55.814;37.132;2022-12-08T13:09:22;14.20;;;5.78;;
71395;SDS011;59888;55.814;37.132;2022-12-08T13:14:34;15.02;;;5.38;;
71395;SDS011;59888;55.814;37.132;2022-12-08T13:17:04;12.68;;;6.05;;
71395;SDS011;59888;55.814;37.132;2022-12-08T13:19:34;13.80;;;5.13;;
71395;SDS011;59888;55.814;37.132;2022-12-08T13:22:03;13.73;;;5.85;;
71395;SDS011;59888;55.814;37.132;2022-12-08T13:24:48;17.48;;;6.72;;
71395;SDS011;59888;55.814;37.132;2022-12-08T13:29:40;16.23;;;5.95;;
71395;SDS011;59888;55.814;37.132;2022-12-08T13:34:33;14.32;;;6.05;;
71395;SDS011;59888;55.814;37.132;2022-12-08T13:40:41;15.85;;;6.00;;
71395;SDS011;59888;55.814;37.132;2022-12-08T13:45:40;14.77;;;6.07;;
71395;SDS011;59888;55.814;37.132;2022-12-08T13:48:19;14.00;;;6.45;;
71395;SDS011;59888;55.814;37.132;2022-12-08T13:51:04;14.70;;;6.05;;
71395;SDS011;59888;55.814;37.132;2022-12-08T13:54:46;16.35;;;6.47;;
71395;SDS011;59888;55.814;37.132;2022-12-08T13:56:41;16.67;;;7.25;;
71395;SDS011;59888;55.814;37.132;2022-12-08T13:59:22;16.42;;;6.75;;
71395;SDS011;59888;55.814;37.132;2022-12-08T14:01:52;13.65;;;7.00;;
71395;SDS011;59888;55.814;37.132;2022-12-08T14:04:21;15.65;;;6.43;;
71395;SDS011;59888;55.814;37.132;2022-12-08T14:06:52;17.92;;;7.10;;
71395;SDS011;59888;55.814;37.132;2022-12-08T14:09:21;16.85;;;6.20;;
71395;SDS011;59888;55.814;37.132;2022-12-08T14:11:59;14.02;;;6.20;;
71395;SDS011;59888;55.814;37.132;2022-12-08T14:14:28;18.55;;;7.05;;
71395;SDS011;59888;55.814;37.132;2022-12-08T14:16:57;14.65;;;6.70;;
71395;SDS011;59888;55.814;37.132;2022-12-08T14:19:34;17.85;;;7.07;;
71395;SDS011;59888;55.814;37.132;2022-12-08T14:22:01;16.85;;;7.15;;
71395;SDS011;59888;55.814;37.132;2022-12-08T14:24:35;16.65;;;7.22;;
71395;SDS011;59888;55.814;37.132;2022-12-08T14:27:02;17.60;;;8.48;;
71395;SDS011;59888;55.814;37.132;2022-12-08T14:29:40;19.35;;;9.23;;
71395;SDS011;59888;55.814;37.132;2022-12-08T14:37:42;19.77;;;8.35;;
71395;SDS011;59888;55.814;37.132;2022-12-08T14:56:27;15.40;;;7.18;;
71395;SDS011;59888;55.814;37.132;2022-12-08T14:59:02;14.25;;;7.22;;
71395;SDS011;59888;55.814;37.132;2022-12-08T15:01:31;21.83;;;7.95;;
71395;SDS011;59888;55.814;37.132;2022-12-08T15:04:05;15.20;;;6.80;;
71395;SDS011;59888;55.814;37.132;2022-12-08T15:06:36;17.75;;;7.50;;
71395;SDS011;59888;55.814;37.132;2022-12-08T15:09:13;15.25;;;7.00;;
71395;SDS011;59888;55.814;37.132;2022-12-08T15:11:41;13.95;;;6.65;;
71395;SDS011;59888;55.814;37.132;2022-12-08T15:14:26;16.98;;;6.90;;
71395;SDS011;59888;55.814;37.132;2022-12-08T15:16:54;15.95;;;6.93;;
71395;SDS011;59888;55.814;37.132;2022-12-08T15:21:48;15.82;;;7.43;;
71395;SDS011;59888;55.814;37.132;2022-12-08T15:24:15;19.15;;;8.27;;
71395;SDS011;59888;55.814;37.132;2022-12-08T15:26:43;22.70;;;9.30;;
71395;SDS011;59888;55.814;37.132;2022-12-08T15:29:20;20.13;;;9.95;;
71395;SDS011;59888;55.814;37.132;2022-12-08T15:31:52;21.92;;;9.43;;
71395;SDS011;59888;55.814;37.132;2022-12-08T15:34:20;19.10;;;9.10;;
71395;SDS011;59888;55.814;37.132;2022-12-08T15:36:46;20.27;;;9.18;;
71395;SDS011;59888;55.814;37.132;2022-12-08T15:41:54;21.30;;;8.45;;
71395;SDS011;59888;55.814;37.132;2022-12-08T15:44:20;18.77;;;8.50;;
71395;SDS011;59888;55.814;37.132;2022-12-08T15:46:45;18.02;;;8.55;;
71395;SDS011;59888;55.814;37.132;2022-12-08T15:49:15;17.48;;;8.00;;
71395;SDS011;59888;55.814;37.132;2022-12-08T15:51:42;22.25;;;8.90;;
71395;SDS011;59888;55.814;37.132;2022-12-08T15:54:08;22.60;;;9.77;;
71395;SDS011;59888;55.814;37.132;2022-12-08T15:56:34;19.83;;;8.95;;
71395;SDS011;59888;55.814;37.132;2022-12-08T15:59:01;23.42;;;9.10;;
71395;SDS011;59888;55.814;37.132;2022-12-08T16:01:27;24.50;;;9.40;;
71395;SDS011;59888;55.814;37.132;2022-12-08T16:03:53;25.08;;;9.45;;
71395;SDS011;59888;55.814;37.132;2022-12-08T16:06:20;22.13;;;9.68;;
71395;SDS011;59888;55.814;37.132;2022-12-08T16:08:46;20.20;;;8.98;;
71395;SDS011;59888;55.814;37.132;2022-12-08T16:11:12;20.13;;;8.43;;
71395;SDS011;59888;55.814;37.132;2022-12-08T16:13:56;20.65;;;9.07;;
71395;SDS011;59888;55.814;37.132;2022-12-08T16:16:28;22.35;;;9.40;;
71395;SDS011;59888;55.814;37.132;2022-12-08T16:18:54;25.80;;;10.30;;
71395;SDS011;59888;55.814;37.132;2022-12-08T16:21:20;18.40;;;9.38;;
71395;SDS011;59888;55.814;37.132;2022-12-08T16:23:46;20.25;;;8.45;;
71395;SDS011;59888;55.814;37.132;2022-12-08T16:26:18;24.63;;;11.48;;
71395;SDS011;59888;55.814;37.132;2022-12-08T16:28:46;22.50;;;9.40;;
71395;SDS011;59888;55.814;37.132;2022-12-08T16:31:12;22.17;;;8.95;;
71395;SDS011;59888;55.814;37.132;2022-12-08T16:33:39;22.92;;;8.25;;
71395;SDS011;59888;55.814;37.132;2022-12-08T16:36:05;17.58;;;8.38;;
71395;SDS011;59888;55.814;37.132;2022-12-08T16:38:33;18.83;;;8.10;;
71395;SDS011;59888;55.814;37.132;2022-12-08T16:40:59;18.70;;;8.43;;
71395;SDS011;59888;55.814;37.132;2022-12-08T16:43:44;18.83;;;7.30;;
71395;SDS011;59888;55.814;37.132;2022-12-08T16:46:15;17.98;;;7.32;;
71395;SDS011;59888;55.814;37.132;2022-12-08T16:48:43;16.90;;;7.65;;